Somerset, Massachusetts
Current Conditions -  °F | °C
As of 5:36 PM on Monday 24 Nov 2014 (Local Time) from KEWB Reporting Station
Overcast Overcast  
Wind Chill: 16°   Ceiling: 700
Heat Index: 16°   Visibility: 8mi
Dew Point: 16°   Wind: 22mph
Humidity: 97%   Direction: 210°SSW
Pressure: 29.68"   Gusts: 33mph
Location:  41.75°N, 71.14°W
Report Text: KEWB 242236Z 21019G29KT 8SM BKN007 OVC012 16/16 A2968 RMK AO2 PK WND 20034/2155 T01610156
Loading
Personal Weather Stations






























Interactive Weather Map New forecast layout! Learn more

10-Day Weather Forecast

Advertisements
Track Severe Weather on mobile